Aviation Digital Data Service (ADDS)

Output produced by METARs form (0404 UTC 19 August 2019)
found at http://www.aviationweather.gov/metar/data/
 
Forecast for: VTSP (PHUKET INTL AIRP, TH)
Text: TAF VTSP 182300Z 1900/2006 00000KT 9999 FEW020
Forecast period: 0000 to 0200 UTC 19 August 2019
Forecast type: FROM: standard forecast or significant change
Winds: calm
Visibility: 6 or more miles 10+ km)
Ceiling: at least 12,000 feet AGL
Clouds: few clouds at 2000 feet AGL
Weather: no significant weather forecast for this period
Text: BECMG 1902/1904 30006KT
Forecast period: 0200 to 1200 UTC 19 August 2019
Forecast type: BECOMING: Conditions expected to become as follows by 0400 UTC 19 August 2019
Winds: from the WNW (300 degrees) at 7 MPH (6 knots; 3.1 m/s)
Visibility: 6 or more miles 10+ km)
Ceiling: at least 12,000 feet AGL
Clouds: few clouds at 2000 feet AGL
Weather: no significant weather forecast for this period
Text: BECMG 1912/1914 00000KT
Forecast period: 1200 UTC 19 August 2019 to 0600 UTC 20 August 2019
Forecast type: BECOMING: Conditions expected to become as follows by 1400 UTC 19 August 2019
Winds: calm
Visibility: 6 or more miles 10+ km)
Ceiling: at least 12,000 feet AGL
Clouds: few clouds at 2000 feet AGL
Weather: no significant weather forecast for this period